KVKS/VKS METAR and TAF weather

Enter ICAO airport designator
Station Type Date Time Source
KVKS METAR 2023/02/05 14:15 UTC NOAA

KVKS 051415Z AUTO 00000KT 4SM BR CLR 05/05 A3028 RMK A01


Station Type Date Time Source
KVKS Decoded METAR 2023/02/05 14:15 UTC NOAA

Vicksburg Municipal, MS, United States (KVKS) 32-14N 090-56W
Feb 05, 2023 - 09:15 AM EST / 2023.02.05 1415 UTC
Wind: Calm:0
Visibility: 4 mile(s):0
Sky conditions: clear
Weather: mist
Temperature: 41 F (5 C)
Dew Point: 41 F (5 C)
Relative Humidity: 100%
Pressure (altimeter): 30.28 in. Hg (1025 hPa)
ob: KVKS 051415Z AUTO 00000KT 4SM BR CLR 05/05 A3028 RMK A01
cycle: 14

Station Type Date Time Source
KVKS TAF UTC NOAA

Error!

Example: see airport list